sensor_id;sensor_type;location;lat;lon;timestamp;temperature;humidity
15749;DHT22;7976;52.526;13.326;2022-08-02T00:01:07;20.20;99.90
15749;DHT22;7976;52.526;13.326;2022-08-02T00:03:35;20.20;99.90
15749;DHT22;7976;52.526;13.326;2022-08-02T00:06:02;20.30;99.90
15749;DHT22;7976;52.526;13.326;2022-08-02T00:08:29;20.20;99.90
15749;DHT22;7976;52.526;13.326;2022-08-02T00:10:57;20.30;99.90
15749;DHT22;7976;52.526;13.326;2022-08-02T00:13:24;20.30;99.90
15749;DHT22;7976;52.526;13.326;2022-08-02T00:15:50;20.30;99.90
15749;DHT22;7976;52.526;13.326;2022-08-02T00:18:17;20.30;99.90
15749;DHT22;7976;52.526;13.326;2022-08-02T00:20:46;20.30;99.90
15749;DHT22;7976;52.526;13.326;2022-08-02T00:23:12;20.30;99.90
15749;DHT22;7976;52.526;13.326;2022-08-02T00:25:39;20.20;99.90
15749;DHT22;7976;52.526;13.326;2022-08-02T00:28:06;20.20;99.90
15749;DHT22;7976;52.526;13.326;2022-08-02T00:30:33;20.20;99.90
15749;DHT22;7976;52.526;13.326;2022-08-02T00:33:00;20.20;99.90
15749;DHT22;7976;52.526;13.326;2022-08-02T00:35:29;20.20;99.90
15749;DHT22;7976;52.526;13.326;2022-08-02T00:37:57;20.10;99.90
15749;DHT22;7976;52.526;13.326;2022-08-02T00:40:24;20.10;99.90
15749;DHT22;7976;52.526;13.326;2022-08-02T00:43:02;20.00;99.90
15749;DHT22;7976;52.526;13.326;2022-08-02T00:45:31;20.00;99.90
15749;DHT22;7976;52.526;13.326;2022-08-02T00:47:59;20.00;99.90
15749;DHT22;7976;52.526;13.326;2022-08-02T00:50:27;20.00;99.90
15749;DHT22;7976;52.526;13.326;2022-08-02T00:52:55;20.00;99.90
15749;DHT22;7976;52.526;13.326;2022-08-02T00:55:24;19.90;99.90
15749;DHT22;7976;52.526;13.326;2022-08-02T00:57:52;19.90;99.90
15749;DHT22;7976;52.526;13.326;2022-08-02T01:00:20;19.90;99.90
15749;DHT22;7976;52.526;13.326;2022-08-02T01:02:47;19.90;99.90
15749;DHT22;7976;52.526;13.326;2022-08-02T01:05:15;19.90;99.90
15749;DHT22;7976;52.526;13.326;2022-08-02T01:07:42;19.90;99.90
15749;DHT22;7976;52.526;13.326;2022-08-02T01:10:09;19.80;99.90
15749;DHT22;7976;52.526;13.326;2022-08-02T01:12:37;19.80;99.90
15749;DHT22;7976;52.526;13.326;2022-08-02T01:15:07;19.80;99.90
15749;DHT22;7976;52.526;13.326;2022-08-02T01:17:42;19.80;99.90
15749;DHT22;7976;52.526;13.326;2022-08-02T01:20:28;19.90;99.90
15749;DHT22;7976;52.526;13.326;2022-08-02T01:23:27;19.90;99.90
15749;DHT22;7976;52.526;13.326;2022-08-02T01:26:24;19.90;99.90
15749;DHT22;7976;52.526;13.326;2022-08-02T01:29:04;19.90;99.90
15749;DHT22;7976;52.526;13.326;2022-08-02T01:31:38;19.90;99.90
15749;DHT22;7976;52.526;13.326;2022-08-02T01:34:14;19.90;99.90
15749;DHT22;7976;52.526;13.326;2022-08-02T01:36:47;19.80;99.90
15749;DHT22;7976;52.526;13.326;2022-08-02T01:39:21;19.80;99.90
15749;DHT22;7976;52.526;13.326;2022-08-02T01:41:52;19.90;99.90
15749;DHT22;7976;52.526;13.326;2022-08-02T01:44:24;19.90;99.90
15749;DHT22;7976;52.526;13.326;2022-08-02T01:46:57;19.80;99.90
15749;DHT22;7976;52.526;13.326;2022-08-02T01:49:29;19.80;99.90
15749;DHT22;7976;52.526;13.326;2022-08-02T01:52:00;19.80;99.90
15749;DHT22;7976;52.526;13.326;2022-08-02T01:54:55;19.80;99.90
15749;DHT22;7976;52.526;13.326;2022-08-02T01:57:26;19.80;99.90
15749;DHT22;7976;52.526;13.326;2022-08-02T01:59:58;19.80;99.90
15749;DHT22;7976;52.526;13.326;2022-08-02T02:02:28;19.80;99.90
15749;DHT22;7976;52.526;13.326;2022-08-02T02:04:58;19.80;99.90
15749;DHT22;7976;52.526;13.326;2022-08-02T02:07:28;19.70;99.90
15749;DHT22;7976;52.526;13.326;2022-08-02T02:09:59;19.70;99.90
15749;DHT22;7976;52.526;13.326;2022-08-02T02:12:31;19.70;99.90
15749;DHT22;7976;52.526;13.326;2022-08-02T02:15:02;19.80;99.90
15749;DHT22;7976;52.526;13.326;2022-08-02T02:17:30;19.70;99.90
15749;DHT22;7976;52.526;13.326;2022-08-02T02:19:59;19.70;99.90
15749;DHT22;7976;52.526;13.326;2022-08-02T02:22:28;19.70;99.90
15749;DHT22;7976;52.526;13.326;2022-08-02T02:24:55;19.70;99.90
15749;DHT22;7976;52.526;13.326;2022-08-02T02:27:22;19.70;99.90
15749;DHT22;7976;52.526;13.326;2022-08-02T02:29:51;19.70;99.90
15749;DHT22;7976;52.526;13.326;2022-08-02T02:32:22;19.70;99.90
15749;DHT22;7976;52.526;13.326;2022-08-02T02:34:53;19.70;99.90
15749;DHT22;7976;52.526;13.326;2022-08-02T02:37:23;19.70;99.90
15749;DHT22;7976;52.526;13.326;2022-08-02T02:39:54;19.70;99.90
15749;DHT22;7976;52.526;13.326;2022-08-02T02:42:25;19.70;99.90
15749;DHT22;7976;52.526;13.326;2022-08-02T02:44:56;19.60;99.90
15749;DHT22;7976;52.526;13.326;2022-08-02T02:47:27;19.60;99.90
15749;DHT22;7976;52.526;13.326;2022-08-02T02:49:56;19.60;99.90
15749;DHT22;7976;52.526;13.326;2022-08-02T02:52:25;19.70;99.90
15749;DHT22;7976;52.526;13.326;2022-08-02T02:54:53;19.60;99.90
15749;DHT22;7976;52.526;13.326;2022-08-02T02:57:23;19.60;99.90
15749;DHT22;7976;52.526;13.326;2022-08-02T02:59:50;19.60;99.90
15749;DHT22;7976;52.526;13.326;2022-08-02T03:02:19;19.50;99.90
15749;DHT22;7976;52.526;13.326;2022-08-02T03:04:48;19.50;99.90
15749;DHT22;7976;52.526;13.326;2022-08-02T03:07:16;19.30;99.90
15749;DHT22;7976;52.526;13.326;2022-08-02T03:09:43;19.30;99.90
15749;DHT22;7976;52.526;13.326;2022-08-02T03:12:10;19.30;99.90
15749;DHT22;7976;52.526;13.326;2022-08-02T03:14:40;19.30;99.90
15749;DHT22;7976;52.526;13.326;2022-08-02T03:17:08;19.20;99.90
15749;DHT22;7976;52.526;13.326;2022-08-02T03:19:35;19.20;99.90
15749;DHT22;7976;52.526;13.326;2022-08-02T03:22:03;19.20;99.90
15749;DHT22;7976;52.526;13.326;2022-08-02T03:24:30;19.10;99.90
15749;DHT22;7976;52.526;13.326;2022-08-02T03:26:57;19.10;99.90
15749;DHT22;7976;52.526;13.326;2022-08-02T03:29:24;19.10;99.90
15749;DHT22;7976;52.526;13.326;2022-08-02T03:31:51;19.10;99.90
15749;DHT22;7976;52.526;13.326;2022-08-02T03:34:19;19.10;99.90
15749;DHT22;7976;52.526;13.326;2022-08-02T03:36:47;19.00;99.90
15749;DHT22;7976;52.526;13.326;2022-08-02T03:39:19;19.00;99.90
15749;DHT22;7976;52.526;13.326;2022-08-02T03:41:48;18.90;99.90
15749;DHT22;7976;52.526;13.326;2022-08-02T03:44:16;18.90;99.90
15749;DHT22;7976;52.526;13.326;2022-08-02T03:46:44;18.90;99.90
15749;DHT22;7976;52.526;13.326;2022-08-02T03:49:13;18.80;99.90
15749;DHT22;7976;52.526;13.326;2022-08-02T03:51:43;18.80;99.90
15749;DHT22;7976;52.526;13.326;2022-08-02T03:54:10;18.80;99.90
15749;DHT22;7976;52.526;13.326;2022-08-02T03:56:39;18.80;99.90
15749;DHT22;7976;52.526;13.326;2022-08-02T03:59:08;18.80;99.90
15749;DHT22;7976;52.526;13.326;2022-08-02T04:01:36;18.80;99.90
15749;DHT22;7976;52.526;13.326;2022-08-02T04:04:04;18.70;99.90
15749;DHT22;7976;52.526;13.326;2022-08-02T04:06:32;18.70;99.90
15749;DHT22;7976;52.526;13.326;2022-08-02T04:08:59;18.70;99.90
15749;DHT22;7976;52.526;13.326;2022-08-02T04:11:25;18.80;99.90
15749;DHT22;7976;52.526;13.326;2022-08-02T04:14:02;18.70;99.90
15749;DHT22;7976;52.526;13.326;2022-08-02T04:16:38;18.70;99.90
15749;DHT22;7976;52.526;13.326;2022-08-02T04:19:09;18.70;99.90
15749;DHT22;7976;52.526;13.326;2022-08-02T04:21:42;18.70;99.90
15749;DHT22;7976;52.526;13.326;2022-08-02T04:24:12;18.70;99.90
15749;DHT22;7976;52.526;13.326;2022-08-02T04:26:42;18.70;99.90
15749;DHT22;7976;52.526;13.326;2022-08-02T04:29:13;18.70;99.90
15749;DHT22;7976;52.526;13.326;2022-08-02T04:31:41;18.70;99.90
15749;DHT22;7976;52.526;13.326;2022-08-02T04:34:08;18.70;99.90
15749;DHT22;7976;52.526;13.326;2022-08-02T04:36:36;18.60;99.90
15749;DHT22;7976;52.526;13.326;2022-08-02T04:39:03;18.60;99.90
15749;DHT22;7976;52.526;13.326;2022-08-02T04:41:38;18.50;99.90
15749;DHT22;7976;52.526;13.326;2022-08-02T04:44:06;18.60;99.90
15749;DHT22;7976;52.526;13.326;2022-08-02T04:46:34;18.50;99.90
15749;DHT22;7976;52.526;13.326;2022-08-02T04:49:02;18.50;99.90
15749;DHT22;7976;52.526;13.326;2022-08-02T04:51:29;18.40;99.90
15749;DHT22;7976;52.526;13.326;2022-08-02T04:53:56;18.40;99.90
15749;DHT22;7976;52.526;13.326;2022-08-02T04:56:23;18.50;99.90
15749;DHT22;7976;52.526;13.326;2022-08-02T04:58:50;18.50;99.90
15749;DHT22;7976;52.526;13.326;2022-08-02T05:01:16;18.50;99.90
15749;DHT22;7976;52.526;13.326;2022-08-02T05:03:45;18.50;99.90
15749;DHT22;7976;52.526;13.326;2022-08-02T05:06:12;18.50;99.90
15749;DHT22;7976;52.526;13.326;2022-08-02T05:08:38;18.50;99.90
15749;DHT22;7976;52.526;13.326;2022-08-02T05:11:05;18.60;99.90
15749;DHT22;7976;52.526;13.326;2022-08-02T05:13:32;18.60;99.90
15749;DHT22;7976;52.526;13.326;2022-08-02T05:15:59;18.60;99.90
15749;DHT22;7976;52.526;13.326;2022-08-02T05:18:28;18.60;99.90
15749;DHT22;7976;52.526;13.326;2022-08-02T05:20:56;18.60;99.90
15749;DHT22;7976;52.526;13.326;2022-08-02T05:23:24;18.70;99.90
15749;DHT22;7976;52.526;13.326;2022-08-02T05:25:50;18.70;99.90
15749;DHT22;7976;52.526;13.326;2022-08-02T05:28:17;18.80;99.90
15749;DHT22;7976;52.526;13.326;2022-08-02T05:30:44;18.80;99.90
15749;DHT22;7976;52.526;13.326;2022-08-02T05:33:11;18.80;99.90
15749;DHT22;7976;52.526;13.326;2022-08-02T05:35:38;18.90;99.90
15749;DHT22;7976;52.526;13.326;2022-08-02T05:38:06;18.90;99.90
15749;DHT22;7976;52.526;13.326;2022-08-02T05:40:33;18.90;99.90
15749;DHT22;7976;52.526;13.326;2022-08-02T05:43:00;19.00;99.90
15749;DHT22;7976;52.526;13.326;2022-08-02T05:45:32;19.00;99.90
15749;DHT22;7976;52.526;13.326;2022-08-02T05:47:59;19.10;99.90
15749;DHT22;7976;52.526;13.326;2022-08-02T05:50:26;19.10;99.90
15749;DHT22;7976;52.526;13.326;2022-08-02T05:53:01;19.20;99.90
15749;DHT22;7976;52.526;13.326;2022-08-02T05:55:34;19.20;99.90
15749;DHT22;7976;52.526;13.326;2022-08-02T05:58:12;19.30;99.90
15749;DHT22;7976;52.526;13.326;2022-08-02T06:00:47;19.30;99.90
15749;DHT22;7976;52.526;13.326;2022-08-02T06:03:21;19.40;99.90
15749;DHT22;7976;52.526;13.326;2022-08-02T06:05:54;19.50;99.90
15749;DHT22;7976;52.526;13.326;2022-08-02T06:08:30;19.50;99.90
15749;DHT22;7976;52.526;13.326;2022-08-02T06:11:01;19.60;99.90
15749;DHT22;7976;52.526;13.326;2022-08-02T06:13:30;19.70;99.90
15749;DHT22;7976;52.526;13.326;2022-08-02T06:15:58;19.70;99.90
15749;DHT22;7976;52.526;13.326;2022-08-02T06:18:26;19.80;99.90
15749;DHT22;7976;52.526;13.326;2022-08-02T06:20:56;19.80;99.90
15749;DHT22;7976;52.526;13.326;2022-08-02T06:23:25;19.90;99.90
15749;DHT22;7976;52.526;13.326;2022-08-02T06:25:52;19.90;99.90
15749;DHT22;7976;52.526;13.326;2022-08-02T06:28:23;20.00;99.90
15749;DHT22;7976;52.526;13.326;2022-08-02T06:30:51;20.00;99.90
15749;DHT22;7976;52.526;13.326;2022-08-02T06:33:18;20.10;99.90
15749;DHT22;7976;52.526;13.326;2022-08-02T06:35:50;20.10;99.90
15749;DHT22;7976;52.526;13.326;2022-08-02T06:38:40;20.20;99.90
15749;DHT22;7976;52.526;13.326;2022-08-02T06:41:12;20.30;99.90
15749;DHT22;7976;52.526;13.326;2022-08-02T06:43:48;20.30;99.90
15749;DHT22;7976;52.526;13.326;2022-08-02T06:46:18;20.40;99.90
15749;DHT22;7976;52.526;13.326;2022-08-02T06:48:46;20.60;99.90
15749;DHT22;7976;52.526;13.326;2022-08-02T06:51:13;20.70;99.90
15749;DHT22;7976;52.526;13.326;2022-08-02T06:53:40;20.70;99.90
15749;DHT22;7976;52.526;13.326;2022-08-02T06:56:08;20.80;99.90
15749;DHT22;7976;52.526;13.326;2022-08-02T06:58:35;20.90;99.90
15749;DHT22;7976;52.526;13.326;2022-08-02T07:01:03;20.90;99.90
15749;DHT22;7976;52.526;13.326;2022-08-02T07:03:32;21.00;99.90
15749;DHT22;7976;52.526;13.326;2022-08-02T07:06:00;21.10;99.90
15749;DHT22;7976;52.526;13.326;2022-08-02T07:08:27;21.20;99.90
15749;DHT22;7976;52.526;13.326;2022-08-02T07:10:57;21.30;99.90
15749;DHT22;7976;52.526;13.326;2022-08-02T07:13:25;21.30;99.90
15749;DHT22;7976;52.526;13.326;2022-08-02T07:15:52;21.40;99.90
15749;DHT22;7976;52.526;13.326;2022-08-02T07:18:21;21.40;99.90
15749;DHT22;7976;52.526;13.326;2022-08-02T07:20:48;21.40;99.90
15749;DHT22;7976;52.526;13.326;2022-08-02T07:23:15;21.40;99.90
15749;DHT22;7976;52.526;13.326;2022-08-02T07:25:44;21.50;99.90
15749;DHT22;7976;52.526;13.326;2022-08-02T07:28:12;21.60;99.90
15749;DHT22;7976;52.526;13.326;2022-08-02T07:30:40;21.70;99.90
15749;DHT22;7976;52.526;13.326;2022-08-02T07:33:07;21.70;99.90
15749;DHT22;7976;52.526;13.326;2022-08-02T07:35:36;21.80;99.90
15749;DHT22;7976;52.526;13.326;2022-08-02T07:38:03;21.90;99.90
15749;DHT22;7976;52.526;13.326;2022-08-02T07:40:30;21.90;99.90
15749;DHT22;7976;52.526;13.326;2022-08-02T07:42:57;22.00;99.90
15749;DHT22;7976;52.526;13.326;2022-08-02T07:45:25;22.00;99.90
15749;DHT22;7976;52.526;13.326;2022-08-02T07:47:53;22.10;99.90
15749;DHT22;7976;52.526;13.326;2022-08-02T07:50:21;22.10;99.90
15749;DHT22;7976;52.526;13.326;2022-08-02T07:52:50;22.20;99.90
15749;DHT22;7976;52.526;13.326;2022-08-02T07:55:17;22.20;99.90
15749;DHT22;7976;52.526;13.326;2022-08-02T07:57:44;22.30;99.90
15749;DHT22;7976;52.526;13.326;2022-08-02T08:00:13;22.40;99.90
15749;DHT22;7976;52.526;13.326;2022-08-02T08:02:41;22.40;99.90
15749;DHT22;7976;52.526;13.326;2022-08-02T08:05:09;22.50;99.90
15749;DHT22;7976;52.526;13.326;2022-08-02T08:07:36;22.60;99.90
15749;DHT22;7976;52.526;13.326;2022-08-02T08:10:06;22.70;99.90
15749;DHT22;7976;52.526;13.326;2022-08-02T08:12:34;22.70;99.90
15749;DHT22;7976;52.526;13.326;2022-08-02T08:15:02;22.80;99.90
15749;DHT22;7976;52.526;13.326;2022-08-02T08:17:29;22.80;99.90
15749;DHT22;7976;52.526;13.326;2022-08-02T08:19:56;22.90;99.90
15749;DHT22;7976;52.526;13.326;2022-08-02T08:22:23;23.00;99.90
15749;DHT22;7976;52.526;13.326;2022-08-02T08:24:50;23.10;99.90
15749;DHT22;7976;52.526;13.326;2022-08-02T08:27:18;23.10;99.90
15749;DHT22;7976;52.526;13.326;2022-08-02T08:29:47;23.20;99.90
15749;DHT22;7976;52.526;13.326;2022-08-02T08:32:15;23.20;99.90
15749;DHT22;7976;52.526;13.326;2022-08-02T08:34:42;23.20;99.90
15749;DHT22;7976;52.526;13.326;2022-08-02T08:37:09;23.30;99.90
15749;DHT22;7976;52.526;13.326;2022-08-02T08:39:35;23.40;99.90
15749;DHT22;7976;52.526;13.326;2022-08-02T08:42:05;23.50;99.90
15749;DHT22;7976;52.526;13.326;2022-08-02T08:44:34;23.60;99.90
15749;DHT22;7976;52.526;13.326;2022-08-02T08:47:04;23.70;99.90
15749;DHT22;7976;52.526;13.326;2022-08-02T08:49:39;23.70;99.90
15749;DHT22;7976;52.526;13.326;2022-08-02T08:52:10;23.80;99.90
15749;DHT22;7976;52.526;13.326;2022-08-02T08:54:40;23.90;99.90
15749;DHT22;7976;52.526;13.326;2022-08-02T08:57:09;23.90;99.90
15749;DHT22;7976;52.526;13.326;2022-08-02T08:59:38;23.90;99.90
15749;DHT22;7976;52.526;13.326;2022-08-02T09:02:05;23.90;99.90
15749;DHT22;7976;52.526;13.326;2022-08-02T09:04:32;23.90;99.90
15749;DHT22;7976;52.526;13.326;2022-08-02T09:07:00;24.00;99.90
15749;DHT22;7976;52.526;13.326;2022-08-02T09:09:27;24.00;99.90
15749;DHT22;7976;52.526;13.326;2022-08-02T09:11:53;24.00;99.90
15749;DHT22;7976;52.526;13.326;2022-08-02T09:14:27;24.10;99.90
15749;DHT22;7976;52.526;13.326;2022-08-02T09:17:09;24.20;99.90
15749;DHT22;7976;52.526;13.326;2022-08-02T09:19:38;24.30;99.90
15749;DHT22;7976;52.526;13.326;2022-08-02T09:22:07;24.40;99.90
15749;DHT22;7976;52.526;13.326;2022-08-02T09:24:43;24.50;99.90
15749;DHT22;7976;52.526;13.326;2022-08-02T09:27:13;24.50;99.90
15749;DHT22;7976;52.526;13.326;2022-08-02T09:29:44;24.50;99.90
15749;DHT22;7976;52.526;13.326;2022-08-02T09:32:14;24.50;99.90
15749;DHT22;7976;52.526;13.326;2022-08-02T09:34:47;24.50;99.90
15749;DHT22;7976;52.526;13.326;2022-08-02T09:37:24;24.50;99.90
15749;DHT22;7976;52.526;13.326;2022-08-02T09:39:52;24.60;99.90
15749;DHT22;7976;52.526;13.326;2022-08-02T09:42:19;24.60;99.90
15749;DHT22;7976;52.526;13.326;2022-08-02T09:44:53;24.60;99.90
15749;DHT22;7976;52.526;13.326;2022-08-02T09:47:24;24.60;99.90
15749;DHT22;7976;52.526;13.326;2022-08-02T09:49:53;24.60;99.90
15749;DHT22;7976;52.526;13.326;2022-08-02T09:52:22;24.50;99.90
15749;DHT22;7976;52.526;13.326;2022-08-02T09:54:52;24.40;99.90
15749;DHT22;7976;52.526;13.326;2022-08-02T09:57:27;24.10;99.90
15749;DHT22;7976;52.526;13.326;2022-08-02T09:59:55;24.00;99.90
15749;DHT22;7976;52.526;13.326;2022-08-02T10:02:25;23.80;99.90
15749;DHT22;7976;52.526;13.326;2022-08-02T10:04:52;23.90;99.90
15749;DHT22;7976;52.526;13.326;2022-08-02T10:07:20;23.90;99.90
15749;DHT22;7976;52.526;13.326;2022-08-02T10:09:48;23.80;99.90
15749;DHT22;7976;52.526;13.326;2022-08-02T10:12:16;23.80;99.90
15749;DHT22;7976;52.526;13.326;2022-08-02T10:14:44;24.00;99.90
15749;DHT22;7976;52.526;13.326;2022-08-02T10:17:11;24.00;99.90
15749;DHT22;7976;52.526;13.326;2022-08-02T10:19:40;24.00;99.90
15749;DHT22;7976;52.526;13.326;2022-08-02T10:22:10;24.20;99.90
15749;DHT22;7976;52.526;13.326;2022-08-02T10:24:40;24.30;99.90
15749;DHT22;7976;52.526;13.326;2022-08-02T10:27:13;24.30;99.90
15749;DHT22;7976;52.526;13.326;2022-08-02T10:29:43;24.40;99.90
15749;DHT22;7976;52.526;13.326;2022-08-02T10:32:15;24.60;99.90
15749;DHT22;7976;52.526;13.326;2022-08-02T10:34:53;24.90;99.90
15749;DHT22;7976;52.526;13.326;2022-08-02T10:37:27;25.20;99.90
15749;DHT22;7976;52.526;13.326;2022-08-02T10:39:57;25.40;99.90
15749;DHT22;7976;52.526;13.326;2022-08-02T10:42:44;25.60;99.90
15749;DHT22;7976;52.526;13.326;2022-08-02T10:45:17;25.90;99.90
15749;DHT22;7976;52.526;13.326;2022-08-02T10:48:06;26.00;99.90
15749;DHT22;7976;52.526;13.326;2022-08-02T10:50:54;26.10;99.90
15749;DHT22;7976;52.526;13.326;2022-08-02T10:53:26;26.10;99.90
15749;DHT22;7976;52.526;13.326;2022-08-02T10:55:55;26.00;99.90
15749;DHT22;7976;52.526;13.326;2022-08-02T10:58:25;26.10;99.90
15749;DHT22;7976;52.526;13.326;2022-08-02T11:00:57;26.10;99.90
15749;DHT22;7976;52.526;13.326;2022-08-02T11:03:39;25.90;99.90
15749;DHT22;7976;52.526;13.326;2022-08-02T11:06:12;25.90;99.90
15749;DHT22;7976;52.526;13.326;2022-08-02T11:08:40;25.90;99.90
15749;DHT22;7976;52.526;13.326;2022-08-02T11:11:17;25.90;99.90
15749;DHT22;7976;52.526;13.326;2022-08-02T11:14:01;26.00;99.90
15749;DHT22;7976;52.526;13.326;2022-08-02T11:17:09;26.00;99.90
15749;DHT22;7976;52.526;13.326;2022-08-02T11:20:17;26.00;99.90
15749;DHT22;7976;52.526;13.326;2022-08-02T11:22:47;26.10;99.90
15749;DHT22;7976;52.526;13.326;2022-08-02T11:25:30;26.10;99.90
15749;DHT22;7976;52.526;13.326;2022-08-02T11:27:59;26.20;99.90
15749;DHT22;7976;52.526;13.326;2022-08-02T11:30:34;26.20;99.90
15749;DHT22;7976;52.526;13.326;2022-08-02T11:33:01;26.10;99.90
15749;DHT22;7976;52.526;13.326;2022-08-02T11:35:33;26.10;99.90
15749;DHT22;7976;52.526;13.326;2022-08-02T11:38:19;26.10;99.90
15749;DHT22;7976;52.526;13.326;2022-08-02T11:40:48;26.30;99.90
15749;DHT22;7976;52.526;13.326;2022-08-02T11:43:20;26.30;99.90
15749;DHT22;7976;52.526;13.326;2022-08-02T11:45:49;26.30;99.90
15749;DHT22;7976;52.526;13.326;2022-08-02T11:48:32;26.40;99.80
15749;DHT22;7976;52.526;13.326;2022-08-02T11:51:04;26.40;99.30
15749;DHT22;7976;52.526;13.326;2022-08-02T11:53:40;26.30;98.80
15749;DHT22;7976;52.526;13.326;2022-08-02T11:56:08;26.30;98.90
15749;DHT22;7976;52.526;13.326;2022-08-02T11:58:35;26.30;98.40
15749;DHT22;7976;52.526;13.326;2022-08-02T12:01:02;26.30;98.30
15749;DHT22;7976;52.526;13.326;2022-08-02T12:03:33;26.40;98.00
15749;DHT22;7976;52.526;13.326;2022-08-02T12:06:02;26.40;97.20
15749;DHT22;7976;52.526;13.326;2022-08-02T12:08:29;26.40;96.90
15749;DHT22;7976;52.526;13.326;2022-08-02T12:11:00;26.50;96.70
15749;DHT22;7976;52.526;13.326;2022-08-02T12:13:41;26.50;96.70
15749;DHT22;7976;52.526;13.326;2022-08-02T12:16:10;26.60;97.00
15749;DHT22;7976;52.526;13.326;2022-08-02T12:18:54;26.70;96.70
15749;DHT22;7976;52.526;13.326;2022-08-02T12:21:39;26.60;96.20
15749;DHT22;7976;52.526;13.326;2022-08-02T12:24:06;26.50;96.10
15749;DHT22;7976;52.526;13.326;2022-08-02T12:26:41;26.60;96.50
15749;DHT22;7976;52.526;13.326;2022-08-02T12:29:09;26.70;96.70
15749;DHT22;7976;52.526;13.326;2022-08-02T12:31:41;26.70;96.50
15749;DHT22;7976;52.526;13.326;2022-08-02T12:34:15;26.70;96.40
15749;DHT22;7976;52.526;13.326;2022-08-02T12:36:57;26.80;96.50
15749;DHT22;7976;52.526;13.326;2022-08-02T12:39:37;26.90;96.30
15749;DHT22;7976;52.526;13.326;2022-08-02T12:42:08;27.00;96.20
15749;DHT22;7976;52.526;13.326;2022-08-02T12:44:37;26.90;96.10
15749;DHT22;7976;52.526;13.326;2022-08-02T12:47:14;26.90;95.80
15749;DHT22;7976;52.526;13.326;2022-08-02T12:49:41;27.00;95.80
15749;DHT22;7976;52.526;13.326;2022-08-02T12:52:18;27.00;95.80
15749;DHT22;7976;52.526;13.326;2022-08-02T12:54:46;27.00;95.70
15749;DHT22;7976;52.526;13.326;2022-08-02T12:57:17;27.00;95.40
15749;DHT22;7976;52.526;13.326;2022-08-02T12:59:49;27.10;94.70
15749;DHT22;7976;52.526;13.326;2022-08-02T13:02:18;27.10;94.30
15749;DHT22;7976;52.526;13.326;2022-08-02T13:04:46;27.10;94.10
15749;DHT22;7976;52.526;13.326;2022-08-02T13:07:12;27.10;94.20
15749;DHT22;7976;52.526;13.326;2022-08-02T13:09:41;27.20;94.30
15749;DHT22;7976;52.526;13.326;2022-08-02T13:12:10;27.20;93.50
15749;DHT22;7976;52.526;13.326;2022-08-02T13:14:38;27.10;93.10
15749;DHT22;7976;52.526;13.326;2022-08-02T13:17:06;27.10;93.30
15749;DHT22;7976;52.526;13.326;2022-08-02T13:19:33;27.10;93.40
15749;DHT22;7976;52.526;13.326;2022-08-02T13:22:01;27.20;93.50
15749;DHT22;7976;52.526;13.326;2022-08-02T13:24:28;27.20;93.60
15749;DHT22;7976;52.526;13.326;2022-08-02T13:26:55;27.20;93.90
15749;DHT22;7976;52.526;13.326;2022-08-02T13:29:21;27.30;93.10
15749;DHT22;7976;52.526;13.326;2022-08-02T13:31:50;27.30;92.70
15749;DHT22;7976;52.526;13.326;2022-08-02T13:34:16;27.30;92.50
15749;DHT22;7976;52.526;13.326;2022-08-02T13:36:43;27.40;92.20
15749;DHT22;7976;52.526;13.326;2022-08-02T13:39:10;27.30;91.90
15749;DHT22;7976;52.526;13.326;2022-08-02T13:41:37;27.40;91.90
15749;DHT22;7976;52.526;13.326;2022-08-02T13:44:05;27.40;91.60
15749;DHT22;7976;52.526;13.326;2022-08-02T13:46:32;27.40;91.50
15749;DHT22;7976;52.526;13.326;2022-08-02T13:49:01;27.50;91.60
15749;DHT22;7976;52.526;13.326;2022-08-02T13:51:27;27.50;91.80
15749;DHT22;7976;52.526;13.326;2022-08-02T13:53:54;27.50;91.90
15749;DHT22;7976;52.526;13.326;2022-08-02T13:56:21;27.60;91.80
15749;DHT22;7976;52.526;13.326;2022-08-02T13:58:48;27.50;91.80
15749;DHT22;7976;52.526;13.326;2022-08-02T14:01:15;27.50;91.80
15749;DHT22;7976;52.526;13.326;2022-08-02T14:03:42;27.50;91.90
15749;DHT22;7976;52.526;13.326;2022-08-02T14:06:10;27.50;92.10
15749;DHT22;7976;52.526;13.326;2022-08-02T14:08:37;27.50;92.00
15749;DHT22;7976;52.526;13.326;2022-08-02T14:11:04;27.50;92.00
15749;DHT22;7976;52.526;13.326;2022-08-02T14:13:31;27.50;92.10
15749;DHT22;7976;52.526;13.326;2022-08-02T14:15:58;27.50;92.10
15749;DHT22;7976;52.526;13.326;2022-08-02T14:18:25;27.40;92.10
15749;DHT22;7976;52.526;13.326;2022-08-02T14:20:52;27.40;92.20
15749;DHT22;7976;52.526;13.326;2022-08-02T14:23:20;27.40;92.30
15749;DHT22;7976;52.526;13.326;2022-08-02T14:25:47;27.40;92.40
15749;DHT22;7976;52.526;13.326;2022-08-02T14:28:14;27.40;92.40
15749;DHT22;7976;52.526;13.326;2022-08-02T14:30:41;27.30;92.30
15749;DHT22;7976;52.526;13.326;2022-08-02T14:33:08;27.30;92.30
15749;DHT22;7976;52.526;13.326;2022-08-02T14:35:35;27.20;92.30
15749;DHT22;7976;52.526;13.326;2022-08-02T14:38:02;27.20;92.30
15749;DHT22;7976;52.526;13.326;2022-08-02T14:40:31;27.10;92.30
15749;DHT22;7976;52.526;13.326;2022-08-02T14:42:58;27.10;92.40
15749;DHT22;7976;52.526;13.326;2022-08-02T14:45:25;27.10;92.30
15749;DHT22;7976;52.526;13.326;2022-08-02T14:47:54;27.20;92.30
15749;DHT22;7976;52.526;13.326;2022-08-02T14:50:22;27.20;92.50
15749;DHT22;7976;52.526;13.326;2022-08-02T14:52:49;27.20;92.20
15749;DHT22;7976;52.526;13.326;2022-08-02T14:55:16;27.30;92.10
15749;DHT22;7976;52.526;13.326;2022-08-02T14:57:45;27.40;92.30
15749;DHT22;7976;52.526;13.326;2022-08-02T15:00:15;27.50;92.20
15749;DHT22;7976;52.526;13.326;2022-08-02T15:02:42;27.40;92.10
15749;DHT22;7976;52.526;13.326;2022-08-02T15:05:09;27.50;92.10
15749;DHT22;7976;52.526;13.326;2022-08-02T15:07:36;27.40;92.00
15749;DHT22;7976;52.526;13.326;2022-08-02T15:10:03;27.40;92.00
15749;DHT22;7976;52.526;13.326;2022-08-02T15:12:31;27.40;92.00
15749;DHT22;7976;52.526;13.326;2022-08-02T15:14:59;27.30;92.00
15749;DHT22;7976;52.526;13.326;2022-08-02T15:17:26;27.30;92.20
15749;DHT22;7976;52.526;13.326;2022-08-02T15:19:53;27.30;92.10
15749;DHT22;7976;52.526;13.326;2022-08-02T15:22:20;27.30;92.20
15749;DHT22;7976;52.526;13.326;2022-08-02T15:24:47;27.20;92.10
15749;DHT22;7976;52.526;13.326;2022-08-02T15:27:14;27.20;92.20
15749;DHT22;7976;52.526;13.326;2022-08-02T15:29:43;27.20;92.10
15749;DHT22;7976;52.526;13.326;2022-08-02T15:32:12;27.10;92.00
15749;DHT22;7976;52.526;13.326;2022-08-02T15:34:39;27.10;92.10
15749;DHT22;7976;52.526;13.326;2022-08-02T15:37:06;27.00;92.10
15749;DHT22;7976;52.526;13.326;2022-08-02T15:39:33;27.00;92.20
15749;DHT22;7976;52.526;13.326;2022-08-02T15:42:00;27.00;92.20
15749;DHT22;7976;52.526;13.326;2022-08-02T15:44:27;27.00;92.30
15749;DHT22;7976;52.526;13.326;2022-08-02T15:46:53;26.90;92.40